sensor_id;sensor_type;location;lat;lon;timestamp;temperature;humidity
7738;DHT22;29398;45.328;5.558;2023-04-16T00:01:11;9.90;99.90
7738;DHT22;29398;45.328;5.558;2023-04-16T00:02:13;9.90;99.90
7738;DHT22;29398;45.328;5.558;2023-04-16T00:03:15;9.90;99.90
7738;DHT22;29398;45.328;5.558;2023-04-16T00:04:17;9.90;99.90
7738;DHT22;29398;45.328;5.558;2023-04-16T00:05:18;9.90;99.90
7738;DHT22;29398;45.328;5.558;2023-04-16T00:06:21;9.90;99.90
7738;DHT22;29398;45.328;5.558;2023-04-16T00:07:22;10.00;99.90
7738;DHT22;29398;45.328;5.558;2023-04-16T00:08:24;10.00;99.90
7738;DHT22;29398;45.328;5.558;2023-04-16T00:09:25;10.00;99.90
7738;DHT22;29398;45.328;5.558;2023-04-16T00:10:29;10.00;99.90
7738;DHT22;29398;45.328;5.558;2023-04-16T00:11:30;10.00;99.90
7738;DHT22;29398;45.328;5.558;2023-04-16T00:12:32;10.00;99.90
7738;DHT22;29398;45.328;5.558;2023-04-16T00:13:33;9.90;99.90
7738;DHT22;29398;45.328;5.558;2023-04-16T00:14:35;9.90;99.90
7738;DHT22;29398;45.328;5.558;2023-04-16T00:15:36;9.90;99.90
7738;DHT22;29398;45.328;5.558;2023-04-16T00:16:38;9.80;99.90
7738;DHT22;29398;45.328;5.558;2023-04-16T00:17:39;9.70;99.90
7738;DHT22;29398;45.328;5.558;2023-04-16T00:18:41;9.60;99.90
7738;DHT22;29398;45.328;5.558;2023-04-16T00:19:42;9.60;99.90
7738;DHT22;29398;45.328;5.558;2023-04-16T00:20:44;9.50;99.90
7738;DHT22;29398;45.328;5.558;2023-04-16T00:21:45;9.50;99.90
7738;DHT22;29398;45.328;5.558;2023-04-16T00:22:47;9.60;99.90
7738;DHT22;29398;45.328;5.558;2023-04-16T00:23:48;9.50;99.90
7738;DHT22;29398;45.328;5.558;2023-04-16T00:24:50;9.60;99.90
7738;DHT22;29398;45.328;5.558;2023-04-16T00:25:53;9.60;99.90
7738;DHT22;29398;45.328;5.558;2023-04-16T00:26:56;9.60;99.90
7738;DHT22;29398;45.328;5.558;2023-04-16T00:27:58;9.60;99.90
7738;DHT22;29398;45.328;5.558;2023-04-16T00:29:00;9.60;99.90
7738;DHT22;29398;45.328;5.558;2023-04-16T00:30:01;9.60;99.90
7738;DHT22;29398;45.328;5.558;2023-04-16T00:31:03;9.60;99.90
7738;DHT22;29398;45.328;5.558;2023-04-16T00:32:05;9.60;99.90
7738;DHT22;29398;45.328;5.558;2023-04-16T00:33:07;9.60;99.90
7738;DHT22;29398;45.328;5.558;2023-04-16T00:34:08;9.70;99.90
7738;DHT22;29398;45.328;5.558;2023-04-16T00:35:10;9.70;99.90
7738;DHT22;29398;45.328;5.558;2023-04-16T00:36:11;9.70;99.90
7738;DHT22;29398;45.328;5.558;2023-04-16T00:37:13;9.80;99.90
7738;DHT22;29398;45.328;5.558;2023-04-16T00:38:14;9.70;99.90
7738;DHT22;29398;45.328;5.558;2023-04-16T00:39:16;9.70;99.90
7738;DHT22;29398;45.328;5.558;2023-04-16T00:40:18;9.70;99.90
7738;DHT22;29398;45.328;5.558;2023-04-16T00:41:22;9.70;99.90
7738;DHT22;29398;45.328;5.558;2023-04-16T00:42:23;9.70;99.90
7738;DHT22;29398;45.328;5.558;2023-04-16T00:43:25;9.70;99.90
7738;DHT22;29398;45.328;5.558;2023-04-16T00:44:26;9.70;99.90
7738;DHT22;29398;45.328;5.558;2023-04-16T00:45:29;9.70;99.90
7738;DHT22;29398;45.328;5.558;2023-04-16T00:46:30;9.80;99.90
7738;DHT22;29398;45.328;5.558;2023-04-16T00:47:33;9.80;99.90
7738;DHT22;29398;45.328;5.558;2023-04-16T00:48:34;9.80;99.90
7738;DHT22;29398;45.328;5.558;2023-04-16T00:49:36;9.80;99.90
7738;DHT22;29398;45.328;5.558;2023-04-16T00:50:38;9.80;99.90
7738;DHT22;29398;45.328;5.558;2023-04-16T00:51:40;9.80;99.90
7738;DHT22;29398;45.328;5.558;2023-04-16T00:52:41;9.90;99.90
7738;DHT22;29398;45.328;5.558;2023-04-16T00:53:44;9.90;99.90
7738;DHT22;29398;45.328;5.558;2023-04-16T00:54:45;9.90;99.90
7738;DHT22;29398;45.328;5.558;2023-04-16T00:55:48;9.90;99.90
7738;DHT22;29398;45.328;5.558;2023-04-16T00:56:50;9.90;99.90
7738;DHT22;29398;45.328;5.558;2023-04-16T00:57:52;9.90;99.90
7738;DHT22;29398;45.328;5.558;2023-04-16T00:58:54;9.80;99.90
7738;DHT22;29398;45.328;5.558;2023-04-16T00:59:57;9.90;99.90
7738;DHT22;29398;45.328;5.558;2023-04-16T01:00:58;9.90;99.90
7738;DHT22;29398;45.328;5.558;2023-04-16T01:02:00;9.90;99.90
7738;DHT22;29398;45.328;5.558;2023-04-16T01:03:02;9.90;99.90
7738;DHT22;29398;45.328;5.558;2023-04-16T01:04:05;9.90;99.90
7738;DHT22;29398;45.328;5.558;2023-04-16T01:05:07;9.90;99.90
7738;DHT22;29398;45.328;5.558;2023-04-16T01:06:10;9.90;99.90
7738;DHT22;29398;45.328;5.558;2023-04-16T01:07:11;9.90;99.90
7738;DHT22;29398;45.328;5.558;2023-04-16T01:08:15;9.90;99.90
7738;DHT22;29398;45.328;5.558;2023-04-16T01:09:17;9.90;99.90
7738;DHT22;29398;45.328;5.558;2023-04-16T01:10:19;9.90;99.90
7738;DHT22;29398;45.328;5.558;2023-04-16T01:11:20;10.00;99.90
7738;DHT22;29398;45.328;5.558;2023-04-16T01:12:23;10.00;99.90
7738;DHT22;29398;45.328;5.558;2023-04-16T01:13:26;10.00;99.90
7738;DHT22;29398;45.328;5.558;2023-04-16T01:14:28;10.00;99.90
7738;DHT22;29398;45.328;5.558;2023-04-16T01:15:31;10.10;99.90
7738;DHT22;29398;45.328;5.558;2023-04-16T01:16:33;10.10;99.90
7738;DHT22;29398;45.328;5.558;2023-04-16T01:17:34;10.00;99.90
7738;DHT22;29398;45.328;5.558;2023-04-16T01:18:37;10.00;99.90
7738;DHT22;29398;45.328;5.558;2023-04-16T01:19:38;9.90;99.90
7738;DHT22;29398;45.328;5.558;2023-04-16T01:20:41;9.90;99.90
7738;DHT22;29398;45.328;5.558;2023-04-16T01:21:42;9.90;99.90
7738;DHT22;29398;45.328;5.558;2023-04-16T01:22:44;10.00;99.90
7738;DHT22;29398;45.328;5.558;2023-04-16T01:23:45;9.90;99.90
7738;DHT22;29398;45.328;5.558;2023-04-16T01:24:47;9.90;99.90
7738;DHT22;29398;45.328;5.558;2023-04-16T01:25:49;9.90;99.90
7738;DHT22;29398;45.328;5.558;2023-04-16T01:26:51;9.80;99.90
7738;DHT22;29398;45.328;5.558;2023-04-16T01:27:52;9.90;99.90
7738;DHT22;29398;45.328;5.558;2023-04-16T01:28:57;9.90;99.90
7738;DHT22;29398;45.328;5.558;2023-04-16T01:29:58;9.90;99.90
7738;DHT22;29398;45.328;5.558;2023-04-16T01:31:12;10.00;99.90
7738;DHT22;29398;45.328;5.558;2023-04-16T01:32:33;9.90;99.90
7738;DHT22;29398;45.328;5.558;2023-04-16T01:33:35;9.90;99.90
7738;DHT22;29398;45.328;5.558;2023-04-16T01:34:36;9.90;99.90
7738;DHT22;29398;45.328;5.558;2023-04-16T01:35:38;9.90;99.90
7738;DHT22;29398;45.328;5.558;2023-04-16T01:36:42;9.90;99.90
7738;DHT22;29398;45.328;5.558;2023-04-16T01:37:44;9.90;99.90
7738;DHT22;29398;45.328;5.558;2023-04-16T01:38:45;9.90;99.90
7738;DHT22;29398;45.328;5.558;2023-04-16T01:39:47;9.90;99.90
7738;DHT22;29398;45.328;5.558;2023-04-16T01:40:48;9.90;99.90
7738;DHT22;29398;45.328;5.558;2023-04-16T01:41:51;9.90;99.90
7738;DHT22;29398;45.328;5.558;2023-04-16T01:42:52;10.00;99.90
7738;DHT22;29398;45.328;5.558;2023-04-16T01:43:54;10.00;99.90
7738;DHT22;29398;45.328;5.558;2023-04-16T01:44:58;10.00;99.90
7738;DHT22;29398;45.328;5.558;2023-04-16T01:46:11;10.00;99.90
7738;DHT22;29398;45.328;5.558;2023-04-16T01:47:13;10.10;99.90
7738;DHT22;29398;45.328;5.558;2023-04-16T01:48:15;10.10;99.90
7738;DHT22;29398;45.328;5.558;2023-04-16T01:49:17;10.50;99.90
7738;DHT22;29398;45.328;5.558;2023-04-16T01:50:19;10.10;99.90
7738;DHT22;29398;45.328;5.558;2023-04-16T01:51:21;10.10;99.90
7738;DHT22;29398;45.328;5.558;2023-04-16T01:52:25;10.10;99.90
7738;DHT22;29398;45.328;5.558;2023-04-16T01:53:26;10.10;99.90
7738;DHT22;29398;45.328;5.558;2023-04-16T01:54:28;10.10;99.90
7738;DHT22;29398;45.328;5.558;2023-04-16T01:55:30;10.10;99.90
7738;DHT22;29398;45.328;5.558;2023-04-16T01:56:32;10.00;99.90
7738;DHT22;29398;45.328;5.558;2023-04-16T01:57:33;10.00;99.90
7738;DHT22;29398;45.328;5.558;2023-04-16T01:58:37;9.90;99.90
7738;DHT22;29398;45.328;5.558;2023-04-16T01:59:38;9.90;99.90
7738;DHT22;29398;45.328;5.558;2023-04-16T02:00:41;9.90;99.90
7738;DHT22;29398;45.328;5.558;2023-04-16T02:01:42;9.90;99.90
7738;DHT22;29398;45.328;5.558;2023-04-16T02:02:44;9.90;99.90
7738;DHT22;29398;45.328;5.558;2023-04-16T02:03:48;9.90;99.90
7738;DHT22;29398;45.328;5.558;2023-04-16T02:04:50;9.90;99.90
7738;DHT22;29398;45.328;5.558;2023-04-16T02:05:51;10.50;99.90
7738;DHT22;29398;45.328;5.558;2023-04-16T02:06:53;9.90;99.90
7738;DHT22;29398;45.328;5.558;2023-04-16T02:07:56;9.90;99.90
7738;DHT22;29398;45.328;5.558;2023-04-16T02:08:58;9.90;99.90
7738;DHT22;29398;45.328;5.558;2023-04-16T02:10:00;10.00;99.90
7738;DHT22;29398;45.328;5.558;2023-04-16T02:11:02;10.00;99.90
7738;DHT22;29398;45.328;5.558;2023-04-16T02:12:03;10.00;99.90
7738;DHT22;29398;45.328;5.558;2023-04-16T02:13:06;10.00;99.90
7738;DHT22;29398;45.328;5.558;2023-04-16T02:14:07;10.00;99.90
7738;DHT22;29398;45.328;5.558;2023-04-16T02:15:10;10.00;99.90
7738;DHT22;29398;45.328;5.558;2023-04-16T02:16:11;10.10;99.90
7738;DHT22;29398;45.328;5.558;2023-04-16T02:17:26;10.10;99.90
7738;DHT22;29398;45.328;5.558;2023-04-16T02:18:38;10.10;99.90
7738;DHT22;29398;45.328;5.558;2023-04-16T02:19:41;10.10;99.90
7738;DHT22;29398;45.328;5.558;2023-04-16T02:20:45;10.10;99.90
7738;DHT22;29398;45.328;5.558;2023-04-16T02:21:49;10.10;99.90
7738;DHT22;29398;45.328;5.558;2023-04-16T02:22:50;10.10;99.90
7738;DHT22;29398;45.328;5.558;2023-04-16T02:23:56;10.10;99.90
7738;DHT22;29398;45.328;5.558;2023-04-16T02:25:01;10.10;99.90
7738;DHT22;29398;45.328;5.558;2023-04-16T02:26:03;10.00;99.90
7738;DHT22;29398;45.328;5.558;2023-04-16T02:27:05;10.00;99.90
7738;DHT22;29398;45.328;5.558;2023-04-16T02:28:07;10.00;99.90
7738;DHT22;29398;45.328;5.558;2023-04-16T02:29:14;10.00;99.90
7738;DHT22;29398;45.328;5.558;2023-04-16T02:30:21;10.10;99.90
7738;DHT22;29398;45.328;5.558;2023-04-16T02:31:22;10.10;99.90
7738;DHT22;29398;45.328;5.558;2023-04-16T02:32:24;10.00;99.90
7738;DHT22;29398;45.328;5.558;2023-04-16T02:33:25;10.00;99.90
7738;DHT22;29398;45.328;5.558;2023-04-16T02:34:33;10.00;99.90
7738;DHT22;29398;45.328;5.558;2023-04-16T02:35:35;10.00;99.90
7738;DHT22;29398;45.328;5.558;2023-04-16T02:36:39;10.00;99.90
7738;DHT22;29398;45.328;5.558;2023-04-16T02:37:40;10.00;99.90
7738;DHT22;29398;45.328;5.558;2023-04-16T02:38:42;10.60;99.90
7738;DHT22;29398;45.328;5.558;2023-04-16T02:39:45;10.00;99.90
7738;DHT22;29398;45.328;5.558;2023-04-16T02:40:49;10.00;99.90
7738;DHT22;29398;45.328;5.558;2023-04-16T02:41:51;9.90;99.90
7738;DHT22;29398;45.328;5.558;2023-04-16T02:42:54;9.90;99.90
7738;DHT22;29398;45.328;5.558;2023-04-16T02:43:55;9.90;99.90
7738;DHT22;29398;45.328;5.558;2023-04-16T02:44:57;9.90;99.90
7738;DHT22;29398;45.328;5.558;2023-04-16T02:45:58;10.00;99.90
7738;DHT22;29398;45.328;5.558;2023-04-16T02:47:00;10.00;99.90
7738;DHT22;29398;45.328;5.558;2023-04-16T02:48:01;10.00;99.90
7738;DHT22;29398;45.328;5.558;2023-04-16T02:49:03;10.00;99.90
7738;DHT22;29398;45.328;5.558;2023-04-16T02:50:06;10.10;99.90
7738;DHT22;29398;45.328;5.558;2023-04-16T02:51:08;10.10;99.90
7738;DHT22;29398;45.328;5.558;2023-04-16T02:52:09;10.10;99.90
7738;DHT22;29398;45.328;5.558;2023-04-16T02:53:11;10.10;99.90
7738;DHT22;29398;45.328;5.558;2023-04-16T02:54:12;10.10;99.90
7738;DHT22;29398;45.328;5.558;2023-04-16T02:55:16;10.10;99.90
7738;DHT22;29398;45.328;5.558;2023-04-16T02:56:17;10.10;99.90
7738;DHT22;29398;45.328;5.558;2023-04-16T02:57:19;10.10;99.90
7738;DHT22;29398;45.328;5.558;2023-04-16T02:58:21;10.10;99.90
7738;DHT22;29398;45.328;5.558;2023-04-16T02:59:23;10.10;99.90
7738;DHT22;29398;45.328;5.558;2023-04-16T03:00:25;10.10;99.90
7738;DHT22;29398;45.328;5.558;2023-04-16T03:01:27;10.10;99.90
7738;DHT22;29398;45.328;5.558;2023-04-16T03:02:28;10.10;99.90
7738;DHT22;29398;45.328;5.558;2023-04-16T03:03:30;10.10;99.90
7738;DHT22;29398;45.328;5.558;2023-04-16T03:04:32;10.00;99.90
7738;DHT22;29398;45.328;5.558;2023-04-16T03:05:34;10.00;99.90
7738;DHT22;29398;45.328;5.558;2023-04-16T03:06:35;9.90;99.90
7738;DHT22;29398;45.328;5.558;2023-04-16T03:07:37;9.90;99.90
7738;DHT22;29398;45.328;5.558;2023-04-16T03:08:40;9.90;99.90
7738;DHT22;29398;45.328;5.558;2023-04-16T03:09:42;9.90;99.90
7738;DHT22;29398;45.328;5.558;2023-04-16T03:10:44;9.90;99.90
7738;DHT22;29398;45.328;5.558;2023-04-16T03:11:48;9.90;99.90
7738;DHT22;29398;45.328;5.558;2023-04-16T03:12:49;9.90;99.90
7738;DHT22;29398;45.328;5.558;2023-04-16T03:13:51;9.90;99.90
7738;DHT22;29398;45.328;5.558;2023-04-16T03:14:53;9.90;99.90
7738;DHT22;29398;45.328;5.558;2023-04-16T03:15:55;9.90;99.90
7738;DHT22;29398;45.328;5.558;2023-04-16T03:16:57;9.90;99.90
7738;DHT22;29398;45.328;5.558;2023-04-16T03:17:59;9.90;99.90
7738;DHT22;29398;45.328;5.558;2023-04-16T03:19:00;9.90;99.90
7738;DHT22;29398;45.328;5.558;2023-04-16T03:20:03;9.90;99.90
7738;DHT22;29398;45.328;5.558;2023-04-16T03:21:04;9.90;99.90
7738;DHT22;29398;45.328;5.558;2023-04-16T03:22:07;9.90;99.90
7738;DHT22;29398;45.328;5.558;2023-04-16T03:23:08;9.90;99.90
7738;DHT22;29398;45.328;5.558;2023-04-16T03:24:10;9.90;99.90
7738;DHT22;29398;45.328;5.558;2023-04-16T03:25:11;9.80;99.90
7738;DHT22;29398;45.328;5.558;2023-04-16T03:26:15;9.80;99.90
7738;DHT22;29398;45.328;5.558;2023-04-16T03:27:16;9.80;99.90
7738;DHT22;29398;45.328;5.558;2023-04-16T03:28:19;9.70;99.90
7738;DHT22;29398;45.328;5.558;2023-04-16T03:29:21;9.70;99.90
7738;DHT22;29398;45.328;5.558;2023-04-16T03:30:23;9.80;99.90
7738;DHT22;29398;45.328;5.558;2023-04-16T03:31:24;9.80;99.90
7738;DHT22;29398;45.328;5.558;2023-04-16T03:32:27;9.80;99.90
7738;DHT22;29398;45.328;5.558;2023-04-16T03:33:28;9.80;99.90
7738;DHT22;29398;45.328;5.558;2023-04-16T03:34:30;9.80;99.90
7738;DHT22;29398;45.328;5.558;2023-04-16T03:35:32;9.80;99.90
7738;DHT22;29398;45.328;5.558;2023-04-16T03:36:34;9.80;99.90
7738;DHT22;29398;45.328;5.558;2023-04-16T03:37:36;9.80;99.90
7738;DHT22;29398;45.328;5.558;2023-04-16T03:38:37;9.80;99.90
7738;DHT22;29398;45.328;5.558;2023-04-16T03:39:40;9.80;99.90
7738;DHT22;29398;45.328;5.558;2023-04-16T03:40:41;9.80;99.90
7738;DHT22;29398;45.328;5.558;2023-04-16T03:41:45;9.80;99.90
7738;DHT22;29398;45.328;5.558;2023-04-16T03:42:46;9.80;99.90
7738;DHT22;29398;45.328;5.558;2023-04-16T03:43:48;9.80;99.90
7738;DHT22;29398;45.328;5.558;2023-04-16T03:44:50;9.80;99.90
7738;DHT22;29398;45.328;5.558;2023-04-16T03:45:53;9.80;99.90
7738;DHT22;29398;45.328;5.558;2023-04-16T03:46:57;9.70;99.90
7738;DHT22;29398;45.328;5.558;2023-04-16T03:47:59;9.70;99.90
7738;DHT22;29398;45.328;5.558;2023-04-16T03:49:00;9.70;99.90
7738;DHT22;29398;45.328;5.558;2023-04-16T03:50:03;9.70;99.90
7738;DHT22;29398;45.328;5.558;2023-04-16T03:51:04;9.70;99.90
7738;DHT22;29398;45.328;5.558;2023-04-16T03:52:07;9.80;99.90
7738;DHT22;29398;45.328;5.558;2023-04-16T03:53:09;9.80;99.90
7738;DHT22;29398;45.328;5.558;2023-04-16T03:54:11;9.80;99.90
7738;DHT22;29398;45.328;5.558;2023-04-16T03:55:12;9.80;99.90
7738;DHT22;29398;45.328;5.558;2023-04-16T03:56:15;9.80;99.90
7738;DHT22;29398;45.328;5.558;2023-04-16T03:57:18;9.70;99.90
7738;DHT22;29398;45.328;5.558;2023-04-16T03:58:20;9.70;99.90
7738;DHT22;29398;45.328;5.558;2023-04-16T03:59:21;9.70;99.90
7738;DHT22;29398;45.328;5.558;2023-04-16T04:00:24;9.80;99.90
7738;DHT22;29398;45.328;5.558;2023-04-16T04:01:35;9.70;99.90
7738;DHT22;29398;45.328;5.558;2023-04-16T04:02:38;9.70;99.90
7738;DHT22;29398;45.328;5.558;2023-04-16T04:03:40;9.60;99.90
7738;DHT22;29398;45.328;5.558;2023-04-16T04:04:42;9.60;99.90
7738;DHT22;29398;45.328;5.558;2023-04-16T04:05:44;9.60;99.90
7738;DHT22;29398;45.328;5.558;2023-04-16T04:06:49;9.60;99.90
7738;DHT22;29398;45.328;5.558;2023-04-16T04:07:50;9.50;99.90
7738;DHT22;29398;45.328;5.558;2023-04-16T04:08:52;9.50;99.90
7738;DHT22;29398;45.328;5.558;2023-04-16T04:09:54;9.50;99.90
7738;DHT22;29398;45.328;5.558;2023-04-16T04:10:56;9.50;99.90
7738;DHT22;29398;45.328;5.558;2023-04-16T04:11:58;9.50;99.90
7738;DHT22;29398;45.328;5.558;2023-04-16T04:13:03;9.50;99.90
7738;DHT22;29398;45.328;5.558;2023-04-16T04:14:05;9.50;99.90
7738;DHT22;29398;45.328;5.558;2023-04-16T04:15:08;9.50;99.90
7738;DHT22;29398;45.328;5.558;2023-04-16T04:16:10;9.50;99.90
7738;DHT22;29398;45.328;5.558;2023-04-16T04:17:12;9.40;99.90
7738;DHT22;29398;45.328;5.558;2023-04-16T04:18:13;9.40;99.90
7738;DHT22;29398;45.328;5.558;2023-04-16T04:19:17;9.40;99.90
7738;DHT22;29398;45.328;5.558;2023-04-16T04:20:18;9.50;99.90
7738;DHT22;29398;45.328;5.558;2023-04-16T04:21:21;9.50;99.90
7738;DHT22;29398;45.328;5.558;2023-04-16T04:22:22;9.50;99.90
7738;DHT22;29398;45.328;5.558;2023-04-16T04:23:26;9.50;99.90
7738;DHT22;29398;45.328;5.558;2023-04-16T04:24:27;9.50;99.90
7738;DHT22;29398;45.328;5.558;2023-04-16T04:25:30;9.50;99.90
7738;DHT22;29398;45.328;5.558;2023-04-16T04:26:32;9.50;99.90
7738;DHT22;29398;45.328;5.558;2023-04-16T04:27:34;9.40;99.90
7738;DHT22;29398;45.328;5.558;2023-04-16T04:28:37;9.40;99.90
7738;DHT22;29398;45.328;5.558;2023-04-16T04:29:39;9.40;99.90
7738;DHT22;29398;45.328;5.558;2023-04-16T04:30:40;9.70;99.90
7738;DHT22;29398;45.328;5.558;2023-04-16T04:31:43;9.30;99.90
7738;DHT22;29398;45.328;5.558;2023-04-16T04:32:44;9.40;99.90
7738;DHT22;29398;45.328;5.558;2023-04-16T04:33:46;9.30;99.90
7738;DHT22;29398;45.328;5.558;2023-04-16T04:34:47;9.30;99.90
7738;DHT22;29398;45.328;5.558;2023-04-16T04:35:49;9.30;99.90
7738;DHT22;29398;45.328;5.558;2023-04-16T04:36:51;9.30;99.90
7738;DHT22;29398;45.328;5.558;2023-04-16T04:37:54;9.30;99.90
7738;DHT22;29398;45.328;5.558;2023-04-16T04:38:55;9.20;99.90
7738;DHT22;29398;45.328;5.558;2023-04-16T04:39:57;9.30;99.90
7738;DHT22;29398;45.328;5.558;2023-04-16T04:40:58;9.20;99.90
7738;DHT22;29398;45.328;5.558;2023-04-16T04:42:05;9.20;99.90
7738;DHT22;29398;45.328;5.558;2023-04-16T04:43:06;9.20;99.90
7738;DHT22;29398;45.328;5.558;2023-04-16T04:44:12;9.20;99.90
7738;DHT22;29398;45.328;5.558;2023-04-16T04:45:13;9.10;99.90
7738;DHT22;29398;45.328;5.558;2023-04-16T04:46:17;7.30;99.90
7738;DHT22;29398;45.328;5.558;2023-04-16T04:47:18;9.10;99.90
7738;DHT22;29398;45.328;5.558;2023-04-16T04:48:20;9.00;99.90
7738;DHT22;29398;45.328;5.558;2023-04-16T04:49:25;9.00;99.90
7738;DHT22;29398;45.328;5.558;2023-04-16T04:50:28;9.00;99.90
7738;DHT22;29398;45.328;5.558;2023-04-16T04:51:29;9.00;99.90
7738;DHT22;29398;45.328;5.558;2023-04-16T04:52:31;9.00;99.90
7738;DHT22;29398;45.328;5.558;2023-04-16T04:53:32;9.00;99.90
7738;DHT22;29398;45.328;5.558;2023-04-16T04:54:34;9.00;99.90
7738;DHT22;29398;45.328;5.558;2023-04-16T04:55:36;9.00;99.90
7738;DHT22;29398;45.328;5.558;2023-04-16T04:56:38;9.00;99.90
7738;DHT22;29398;45.328;5.558;2023-04-16T04:57:39;9.00;99.90
7738;DHT22;29398;45.328;5.558;2023-04-16T04:58:41;8.90;99.90
7738;DHT22;29398;45.328;5.558;2023-04-16T04:59:44;9.00;99.90
7738;DHT22;29398;45.328;5.558;2023-04-16T05:00:47;9.00;99.90
7738;DHT22;29398;45.328;5.558;2023-04-16T05:01:49;8.90;99.90
7738;DHT22;29398;45.328;5.558;2023-04-16T05:02:51;8.90;99.90
7738;DHT22;29398;45.328;5.558;2023-04-16T05:03:52;8.90;99.90
7738;DHT22;29398;45.328;5.558;2023-04-16T05:04:54;8.90;99.90
7738;DHT22;29398;45.328;5.558;2023-04-16T05:05:55;8.90;99.90
7738;DHT22;29398;45.328;5.558;2023-04-16T05:06:57;8.90;99.90
7738;DHT22;29398;45.328;5.558;2023-04-16T05:07:58;8.80;99.90
7738;DHT22;29398;45.328;5.558;2023-04-16T05:09:00;8.80;99.90
7738;DHT22;29398;45.328;5.558;2023-04-16T05:10:01;8.80;99.90
7738;DHT22;29398;45.328;5.558;2023-04-16T05:11:04;8.80;99.90
7738;DHT22;29398;45.328;5.558;2023-04-16T05:12:05;8.70;99.90
7738;DHT22;29398;45.328;5.558;2023-04-16T05:13:07;8.70;99.90
7738;DHT22;29398;45.328;5.558;2023-04-16T05:14:08;8.70;99.90
7738;DHT22;29398;45.328;5.558;2023-04-16T05:15:12;8.60;99.90
7738;DHT22;29398;45.328;5.558;2023-04-16T05:16:13;8.70;99.90
7738;DHT22;29398;45.328;5.558;2023-04-16T05:17:15;8.60;99.90
7738;DHT22;29398;45.328;5.558;2023-04-16T05:18:16;8.70;99.90
7738;DHT22;29398;45.328;5.558;2023-04-16T05:19:18;8.70;99.90
7738;DHT22;29398;45.328;5.558;2023-04-16T05:20:19;8.70;99.90
7738;DHT22;29398;45.328;5.558;2023-04-16T05:21:22;8.70;99.90
7738;DHT22;29398;45.328;5.558;2023-04-16T05:22:23;8.70;99.90
7738;DHT22;29398;45.328;5.558;2023-04-16T05:23:25;8.70;99.90
7738;DHT22;29398;45.328;5.558;2023-04-16T05:24:26;8.70;99.90
7738;DHT22;29398;45.328;5.558;2023-04-16T05:25:28;8.70;99.90
7738;DHT22;29398;45.328;5.558;2023-04-16T05:26:29;8.80;99.90
7738;DHT22;29398;45.328;5.558;2023-04-16T05:27:31;8.70;99.90
7738;DHT22;29398;45.328;5.558;2023-04-16T05:28:32;8.80;99.90
7738;DHT22;29398;45.328;5.558;2023-04-16T05:29:34;8.80;99.90
7738;DHT22;29398;45.328;5.558;2023-04-16T05:30:37;8.80;99.90
7738;DHT22;29398;45.328;5.558;2023-04-16T05:31:39;8.80;99.90
7738;DHT22;29398;45.328;5.558;2023-04-16T05:32:40;8.80;99.90
7738;DHT22;29398;45.328;5.558;2023-04-16T05:33:42;8.70;99.90
7738;DHT22;29398;45.328;5.558;2023-04-16T05:34:43;8.70;99.90
7738;DHT22;29398;45.328;5.558;2023-04-16T05:35:45;8.70;99.90
7738;DHT22;29398;45.328;5.558;2023-04-16T05:36:46;8.70;99.90
7738;DHT22;29398;45.328;5.558;2023-04-16T05:37:48;8.70;99.90
7738;DHT22;29398;45.328;5.558;2023-04-16T05:38:49;8.70;99.90
7738;DHT22;29398;45.328;5.558;2023-04-16T05:39:52;8.80;99.90
7738;DHT22;29398;45.328;5.558;2023-04-16T05:40:53;8.70;99.90
7738;DHT22;29398;45.328;5.558;2023-04-16T05:41:55;8.70;99.90
7738;DHT22;29398;45.328;5.558;2023-04-16T05:42:56;8.70;99.90
7738;DHT22;29398;45.328;5.558;2023-04-16T05:43:58;8.70;99.90
7738;DHT22;29398;45.328;5.558;2023-04-16T05:45:01;8.70;99.90
7738;DHT22;29398;45.328;5.558;2023-04-16T05:46:05;8.70;99.90
7738;DHT22;29398;45.328;5.558;2023-04-16T05:47:06;8.70;99.90
7738;DHT22;29398;45.328;5.558;2023-04-16T05:48:09;8.70;99.90
7738;DHT22;29398;45.328;5.558;2023-04-16T05:49:10;8.70;99.90
7738;DHT22;29398;45.328;5.558;2023-04-16T05:50:12;8.70;99.90
7738;DHT22;29398;45.328;5.558;2023-04-16T05:51:13;8.80;99.90
7738;DHT22;29398;45.328;5.558;2023-04-16T05:52:15;8.80;99.90
7738;DHT22;29398;45.328;5.558;2023-04-16T05:53:16;8.80;99.90
7738;DHT22;29398;45.328;5.558;2023-04-16T05:54:19;8.90;99.90
7738;DHT22;29398;45.328;5.558;2023-04-16T05:55:20;9.00;99.90
7738;DHT22;29398;45.328;5.558;2023-04-16T05:56:22;9.00;99.90
7738;DHT22;29398;45.328;5.558;2023-04-16T05:57:24;8.90;99.90
7738;DHT22;29398;45.328;5.558;2023-04-16T05:58:27;8.90;99.90
7738;DHT22;29398;45.328;5.558;2023-04-16T05:59:28;8.80;99.90
7738;DHT22;29398;45.328;5.558;2023-04-16T06:00:31;8.80;99.90
7738;DHT22;29398;45.328;5.558;2023-04-16T06:01:34;8.80;99.90
7738;DHT22;29398;45.328;5.558;2023-04-16T06:02:36;8.80;99.90
7738;DHT22;29398;45.328;5.558;2023-04-16T06:03:37;8.90;99.90
7738;DHT22;29398;45.328;5.558;2023-04-16T06:04:39;8.90;99.90
7738;DHT22;29398;45.328;5.558;2023-04-16T06:05:40;9.00;99.90
7738;DHT22;29398;45.328;5.558;2023-04-16T06:06:42;9.00;99.90
7738;DHT22;29398;45.328;5.558;2023-04-16T06:07:43;9.10;99.90
7738;DHT22;29398;45.328;5.558;2023-04-16T06:08:45;9.10;99.90
7738;DHT22;29398;45.328;5.558;2023-04-16T06:09:46;9.10;99.90
7738;DHT22;29398;45.328;5.558;2023-04-16T06:10:48;9.10;99.90
7738;DHT22;29398;45.328;5.558;2023-04-16T06:11:49;9.20;99.90
7738;DHT22;29398;45.328;5.558;2023-04-16T06:12:51;9.20;99.90
7738;DHT22;29398;45.328;5.558;2023-04-16T06:13:53;9.30;99.90
7738;DHT22;29398;45.328;5.558;2023-04-16T06:14:55;9.30;99.90
7738;DHT22;29398;45.328;5.558;2023-04-16T06:15:56;9.30;99.90
7738;DHT22;29398;45.328;5.558;2023-04-16T06:16:59;9.40;99.90
7738;DHT22;29398;45.328;5.558;2023-04-16T06:18:01;9.40;99.90
7738;DHT22;29398;45.328;5.558;2023-04-16T06:19:03;9.50;99.90
7738;DHT22;29398;45.328;5.558;2023-04-16T06:20:05;9.50;99.90
7738;DHT22;29398;45.328;5.558;2023-04-16T06:21:07;9.50;99.90
7738;DHT22;29398;45.328;5.558;2023-04-16T06:22:08;9.50;99.90
7738;DHT22;29398;45.328;5.558;2023-04-16T06:23:10;9.50;99.90
7738;DHT22;29398;45.328;5.558;2023-04-16T06:24:11;9.40;99.90
7738;DHT22;29398;45.328;5.558;2023-04-16T06:25:13;9.40;99.90
7738;DHT22;29398;45.328;5.558;2023-04-16T06:26:15;9.50;99.90
7738;DHT22;29398;45.328;5.558;2023-04-16T06:28:18;9.50;99.90
7738;DHT22;29398;45.328;5.558;2023-04-16T06:29:20;9.60;99.90
7738;DHT22;29398;45.328;5.558;2023-04-16T06:30:21;9.70;99.90
7738;DHT22;29398;45.328;5.558;2023-04-16T06:31:23;9.80;99.90
7738;DHT22;29398;45.328;5.558;2023-04-16T06:32:26;9.80;99.90
7738;DHT22;29398;45.328;5.558;2023-04-16T06:33:28;9.90;99.90
7738;DHT22;29398;45.328;5.558;2023-04-16T06:34:29;10.00;99.90
7738;DHT22;29398;45.328;5.558;2023-04-16T06:35:31;10.10;99.90
7738;DHT22;29398;45.328;5.558;2023-04-16T06:36:32;9.60;99.90
7738;DHT22;29398;45.328;5.558;2023-04-16T06:37:34;10.10;99.90
7738;DHT22;29398;45.328;5.558;2023-04-16T06:38:36;10.20;99.90
7738;DHT22;29398;45.328;5.558;2023-04-16T06:39:38;10.20;99.90
7738;DHT22;29398;45.328;5.558;2023-04-16T06:40:39;10.20;99.90
7738;DHT22;29398;45.328;5.558;2023-04-16T06:41:41;10.20;99.90
7738;DHT22;29398;45.328;5.558;2023-04-16T06:42:42;10.20;99.90
7738;DHT22;29398;45.328;5.558;2023-04-16T06:43:44;10.30;99.90
7738;DHT22;29398;45.328;5.558;2023-04-16T06:44:46;10.30;99.90
7738;DHT22;29398;45.328;5.558;2023-04-16T06:45:48;10.30;99.90